createdAt,value
2023-03-21T00:01:06.461Z,1.27
2023-03-21T00:08:14.326Z,1.00
2023-03-21T00:11:38.014Z,1.33
2023-03-21T00:15:05.711Z,1.23
2023-03-21T00:18:29.763Z,1.20
2023-03-21T00:22:11.017Z,1.37
2023-03-21T00:25:34.864Z,1.30
2023-03-21T00:28:58.643Z,1.23
2023-03-21T00:32:24.059Z,1.30
2023-03-21T00:36:12.580Z,0.90
2023-03-21T00:39:32.306Z,1.30
2023-03-21T00:42:56.047Z,1.20
2023-03-21T00:46:21.740Z,1.27
2023-03-21T00:49:48.326Z,1.13
2023-03-21T00:53:12.203Z,1.10
2023-03-21T00:56:35.905Z,1.40
2023-03-21T00:59:59.740Z,1.70
2023-03-21T01:03:26.557Z,1.30
2023-03-21T01:06:51.687Z,1.20
2023-03-21T01:10:16.167Z,1.23
2023-03-21T01:13:44.181Z,1.53
2023-03-21T01:17:20.424Z,1.13
2023-03-21T01:20:45.544Z,1.20
2023-03-21T01:24:11.040Z,1.20
2023-03-21T01:27:34.771Z,1.33
2023-03-21T01:30:58.605Z,1.50
2023-03-21T01:34:22.359Z,1.33
2023-03-21T01:37:46.183Z,1.33
2023-03-21T01:41:26.238Z,1.10
2023-03-21T01:44:58.325Z,1.23
2023-03-21T01:48:31.864Z,1.30
2023-03-21T01:52:11.455Z,1.47
2023-03-21T01:55:38.467Z,1.70
2023-03-21T01:59:32.604Z,1.40
2023-03-21T02:03:26.324Z,1.33
2023-03-21T02:07:09.850Z,1.80
2023-03-21T02:10:38.906Z,1.43
2023-03-21T02:14:06.961Z,2.07
2023-03-21T02:17:53.865Z,1.90
2023-03-21T02:22:17.876Z,1.60
2023-03-21T02:26:41.224Z,1.50
2023-03-21T02:30:51.307Z,1.60
2023-03-21T02:34:42.974Z,1.47
2023-03-21T02:38:12.287Z,1.73
2023-03-21T02:41:47.506Z,1.33
2023-03-21T02:45:16.769Z,1.63
2023-03-21T02:48:54.519Z,1.70
2023-03-21T02:52:37.389Z,1.60
2023-03-21T02:56:10.533Z,1.50
2023-03-21T02:59:51.591Z,1.67
2023-03-21T03:03:33.313Z,1.50
2023-03-21T03:07:21.652Z,2.03
2023-03-21T03:10:59.320Z,1.40
2023-03-21T03:14:56.386Z,1.80
2023-03-21T03:18:34.665Z,1.83
2023-03-21T03:22:07.665Z,1.40
2023-03-21T03:25:42.830Z,1.50
2023-03-21T03:29:14.343Z,1.40
2023-03-21T03:32:45.820Z,1.23
2023-03-21T03:36:30.382Z,1.50
2023-03-21T03:40:03.135Z,1.43
2023-03-21T03:43:33.635Z,1.57
2023-03-21T03:47:03.152Z,1.20
2023-03-21T03:50:31.271Z,1.50
2023-03-21T03:53:59.724Z,1.10
2023-03-21T03:57:27.956Z,1.20
2023-03-21T04:00:53.703Z,1.03
2023-03-21T04:04:18.032Z,1.27
2023-03-21T04:07:43.258Z,1.40
2023-03-21T04:11:08.020Z,1.00
2023-03-21T04:14:44.183Z,1.10
2023-03-21T04:18:09.673Z,1.00
2023-03-21T04:21:33.681Z,1.10
2023-03-21T04:25:00.602Z,1.17
2023-03-21T04:28:26.225Z,1.30
2023-03-21T04:31:59.058Z,1.03
2023-03-21T04:35:24.587Z,1.10
2023-03-21T04:38:48.583Z,1.43
2023-03-21T04:42:15.583Z,1.10
2023-03-21T04:45:39.419Z,1.10
2023-03-21T04:49:03.730Z,1.10
2023-03-21T04:52:27.885Z,1.20
2023-03-21T04:55:54.895Z,1.10
2023-03-21T04:59:21.364Z,1.10
2023-03-21T05:02:46.108Z,1.00
2023-03-21T05:06:11.120Z,1.03
2023-03-21T05:09:34.921Z,1.17
2023-03-21T05:12:59.843Z,1.00
2023-03-21T05:16:30.742Z,1.20
2023-03-21T05:19:57.192Z,1.10
2023-03-21T05:23:21.286Z,1.00
2023-03-21T05:26:50.338Z,1.10
2023-03-21T05:30:19.235Z,1.00
2023-03-21T05:33:48.215Z,1.10
2023-03-21T05:37:15.505Z,1.03
2023-03-21T05:40:48.397Z,1.10
2023-03-21T05:44:12.923Z,1.13
2023-03-21T05:47:37.682Z,1.10
2023-03-21T05:51:03.861Z,0.97
2023-03-21T05:54:28.258Z,0.83
2023-03-21T05:57:52.633Z,1.07
2023-03-21T06:01:22.180Z,0.90
2023-03-21T06:05:02.923Z,1.03
2023-03-21T06:08:28.272Z,1.03
2023-03-21T06:11:54.551Z,1.00
2023-03-21T06:15:19.807Z,0.90
2023-03-21T06:18:55.223Z,0.90
2023-03-21T06:22:37.304Z,1.27
2023-03-21T06:26:02.698Z,1.17
2023-03-21T06:29:27.312Z,1.00
2023-03-21T06:32:51.146Z,1.13
2023-03-21T06:36:15.612Z,1.03
2023-03-21T06:39:40.184Z,1.10
2023-03-21T06:43:05.760Z,1.27
2023-03-21T06:46:30.389Z,1.20
2023-03-21T06:49:54.287Z,1.10
2023-03-21T06:53:18.428Z,1.20
2023-03-21T06:57:04.945Z,1.10
2023-03-21T07:00:33.660Z,1.37
2023-03-21T07:03:58.915Z,1.30
2023-03-21T07:07:27.170Z,1.30
2023-03-21T07:10:51.265Z,1.17
2023-03-21T07:14:15.150Z,1.07
2023-03-21T07:17:40.359Z,1.20
2023-03-21T07:21:04.227Z,1.40
2023-03-21T07:24:28.446Z,1.30
2023-03-21T07:27:53.079Z,1.10
2023-03-21T07:31:19.476Z,1.30
2023-03-21T07:34:46.820Z,1.20
2023-03-21T07:38:10.618Z,1.60
2023-03-21T07:41:34.255Z,1.40
2023-03-21T07:45:11.322Z,1.13
2023-03-21T07:48:35.157Z,1.20
2023-03-21T07:52:04.315Z,1.30
2023-03-21T07:55:29.094Z,1.30
2023-03-21T07:58:52.862Z,1.60
2023-03-21T08:02:18.423Z,1.50
2023-03-21T08:05:44.221Z,1.57
2023-03-21T08:09:09.286Z,1.70
2023-03-21T08:12:33.125Z,1.50
2023-03-21T08:15:56.957Z,2.00
2023-03-21T08:19:21.767Z,1.67
2023-03-21T08:22:45.605Z,1.67
2023-03-21T08:26:11.488Z,1.73
2023-03-21T08:29:40.339Z,1.97
2023-03-21T08:33:05.362Z,1.57
2023-03-21T08:36:30.377Z,2.00
2023-03-21T08:39:54.347Z,2.00
2023-03-21T08:43:19.517Z,2.00
2023-03-21T08:46:43.392Z,2.17
2023-03-21T08:50:09.453Z,1.90
2023-03-21T08:53:33.750Z,1.70
2023-03-21T08:56:57.766Z,1.87
2023-03-21T09:00:23.484Z,1.70
2023-03-21T09:03:47.034Z,1.87
2023-03-21T09:07:12.520Z,1.60
2023-03-21T09:10:36.369Z,1.60
2023-03-21T09:14:00.132Z,1.30
2023-03-21T09:17:24.865Z,1.50
2023-03-21T09:20:50.424Z,1.30
2023-03-21T09:24:15.587Z,1.57
2023-03-21T09:27:39.311Z,1.40
2023-03-21T09:31:03.984Z,1.50
2023-03-21T09:34:29.276Z,1.43
2023-03-21T09:37:53.095Z,1.30
2023-03-21T09:41:30.860Z,1.33
2023-03-21T09:45:05.995Z,1.40
2023-03-21T09:48:50.606Z,1.40
2023-03-21T09:52:26.156Z,1.60
2023-03-21T09:55:51.895Z,1.27
2023-03-21T09:59:23.487Z,1.30
2023-03-21T10:02:51.740Z,1.00
2023-03-21T10:06:16.534Z,1.00
2023-03-21T10:09:43.170Z,1.23
2023-03-21T10:13:13.587Z,0.90
2023-03-21T10:16:43.250Z,1.20
2023-03-21T10:20:24.552Z,1.20
2023-03-21T10:23:51.793Z,1.23
2023-03-21T10:27:17.361Z,1.10
2023-03-21T10:30:45.524Z,1.30
2023-03-21T10:34:19.322Z,1.10
2023-03-21T10:37:43.056Z,1.07
2023-03-21T10:41:06.973Z,1.10
2023-03-21T10:44:34.741Z,1.23
2023-03-21T10:47:58.517Z,1.33
2023-03-21T10:51:26.624Z,0.80
2023-03-21T10:54:51.390Z,1.10
2023-03-21T10:58:19.063Z,1.33
2023-03-21T11:01:49.892Z,1.07
2023-03-21T11:05:23.225Z,1.23
2023-03-21T11:08:51.656Z,1.07
2023-03-21T11:12:17.916Z,1.00
2023-03-21T11:15:54.253Z,0.90
2023-03-21T11:19:27.648Z,0.80
2023-03-21T11:22:55.375Z,0.90
2023-03-21T11:26:24.060Z,0.83
2023-03-21T11:29:51.395Z,1.03
2023-03-21T11:33:15.057Z,0.87
2023-03-21T11:36:40.852Z,0.90
2023-03-21T11:40:21.446Z,0.80
2023-03-21T11:43:53.477Z,1.00
2023-03-21T11:47:17.502Z,0.90
2023-03-21T11:50:46.173Z,0.90
2023-03-21T11:54:17.430Z,0.80
2023-03-21T11:58:00.218Z,0.80
2023-03-21T12:01:36.423Z,0.80
2023-03-21T12:05:05.435Z,0.70
2023-03-21T12:08:42.420Z,0.80
2023-03-21T12:12:24.477Z,0.70
2023-03-21T12:16:06.611Z,1.20
2023-03-21T12:20:02.198Z,1.63
2023-03-21T12:23:51.670Z,1.50
2023-03-21T12:27:26.205Z,1.17
2023-03-21T12:30:57.530Z,1.00
2023-03-21T12:34:36.326Z,1.10
2023-03-21T12:38:13.654Z,1.00
2023-03-21T12:41:44.666Z,1.30
2023-03-21T12:45:17.967Z,1.13
2023-03-21T12:48:47.421Z,1.00
2023-03-21T12:52:15.662Z,1.37
2023-03-21T12:55:42.001Z,1.20
2023-03-21T12:59:15.276Z,1.20
2023-03-21T13:02:45.494Z,1.13
2023-03-21T13:06:12.620Z,1.20
2023-03-21T13:09:38.590Z,1.10
2023-03-21T13:13:13.852Z,1.40
2023-03-21T13:16:42.162Z,1.00
2023-03-21T13:20:19.141Z,1.00
2023-03-21T13:23:55.761Z,1.03
2023-03-21T13:27:27.411Z,1.20
2023-03-21T13:30:52.151Z,1.40
2023-03-21T13:34:16.884Z,1.10
2023-03-21T13:37:44.795Z,1.20
2023-03-21T13:41:14.044Z,1.10
2023-03-21T13:44:50.006Z,1.07
2023-03-21T13:48:31.039Z,1.00
2023-03-21T13:51:56.212Z,0.93
2023-03-21T13:55:22.306Z,1.10
2023-03-21T13:59:00.169Z,0.90
2023-03-21T14:02:30.530Z,1.00
2023-03-21T14:05:55.156Z,0.93
2023-03-21T14:09:27.813Z,1.10
2023-03-21T14:12:54.082Z,1.17
2023-03-21T14:16:20.334Z,1.10
2023-03-21T14:19:44.170Z,1.17
2023-03-21T14:23:09.149Z,1.00
2023-03-21T14:26:36.210Z,1.30
2023-03-21T14:30:03.106Z,1.20
2023-03-21T14:33:30.315Z,1.10
2023-03-21T14:36:58.820Z,1.10
2023-03-21T14:40:26.607Z,1.13
2023-03-21T14:44:03.910Z,1.10
2023-03-21T14:47:32.098Z,1.10
2023-03-21T14:50:58.433Z,1.00
2023-03-21T14:54:23.032Z,1.17
2023-03-21T14:57:47.811Z,1.10
2023-03-21T15:01:18.148Z,1.17
2023-03-21T15:04:44.737Z,1.07
2023-03-21T15:08:15.105Z,0.97
2023-03-21T15:11:40.490Z,1.00
2023-03-21T15:15:05.747Z,1.27
2023-03-21T15:18:32.494Z,1.27
2023-03-21T15:22:07.916Z,1.20
2023-03-21T15:25:35.704Z,1.00
2023-03-21T15:29:02.244Z,1.10
2023-03-21T15:32:29.392Z,1.00
2023-03-21T15:35:55.681Z,1.20
2023-03-21T15:39:23.741Z,1.10
2023-03-21T15:42:47.699Z,1.00
2023-03-21T15:46:16.353Z,1.10
2023-03-21T15:49:42.360Z,1.00
2023-03-21T15:53:13.086Z,1.10
2023-03-21T15:56:42.317Z,1.10
2023-03-21T16:00:22.940Z,0.90
2023-03-21T16:03:48.331Z,1.00
2023-03-21T16:07:17.254Z,0.93
2023-03-21T16:10:41.417Z,0.83
2023-03-21T16:14:06.508Z,0.80
2023-03-21T16:17:37.336Z,1.03
2023-03-21T16:21:01.158Z,1.10
2023-03-21T16:24:24.997Z,0.97
2023-03-21T16:27:49.692Z,1.17
2023-03-21T16:31:17.870Z,1.43
2023-03-21T16:34:42.754Z,1.20
2023-03-21T16:38:06.635Z,1.30
2023-03-21T16:41:30.455Z,1.20
2023-03-21T16:44:54.308Z,1.00
2023-03-21T16:48:19.699Z,1.10
2023-03-21T16:51:43.596Z,1.13
2023-03-21T16:55:08.635Z,1.20
2023-03-21T16:58:32.417Z,1.10
2023-03-21T17:01:55.928Z,1.13
2023-03-21T17:05:21.626Z,1.00
2023-03-21T17:08:45.676Z,1.10
2023-03-21T17:12:13.545Z,0.83
2023-03-21T17:15:37.363Z,0.87
2023-03-21T17:19:01.742Z,1.00
2023-03-21T17:22:26.823Z,1.20
2023-03-21T17:25:50.879Z,0.93
2023-03-21T17:29:15.639Z,1.20
2023-03-21T17:32:39.503Z,1.00
2023-03-21T17:36:03.465Z,1.00
2023-03-21T17:39:28.920Z,1.00
2023-03-21T17:42:53.383Z,1.13
2023-03-21T17:46:20.994Z,1.13
2023-03-21T17:49:45.320Z,0.97
2023-03-21T17:53:09.903Z,1.17
2023-03-21T17:56:37.517Z,1.00
2023-03-21T18:00:01.969Z,0.90
2023-03-21T18:03:35.672Z,1.10
2023-03-21T18:07:01.163Z,1.13
2023-03-21T18:10:28.384Z,0.90
2023-03-21T18:14:06.545Z,1.00
2023-03-21T18:17:38.285Z,1.20
2023-03-21T18:21:02.590Z,1.00
2023-03-21T18:24:26.713Z,0.90
2023-03-21T18:28:10.002Z,1.13
2023-03-21T18:31:36.984Z,1.10
2023-03-21T18:35:00.832Z,1.03
2023-03-21T18:38:24.707Z,0.90
2023-03-21T18:41:48.949Z,0.90
2023-03-21T18:45:13.536Z,1.07
2023-03-21T18:48:39.321Z,1.00
2023-03-21T18:52:03.353Z,1.10
2023-03-21T18:55:44.406Z,1.10
2023-03-21T18:59:10.016Z,1.13
2023-03-21T19:02:33.922Z,1.30
2023-03-21T19:06:03.639Z,1.10
2023-03-21T19:09:31.624Z,1.23
2023-03-21T19:12:57.046Z,1.20
2023-03-21T19:16:25.472Z,1.37
2023-03-21T19:19:53.746Z,1.20
2023-03-21T19:23:21.054Z,1.40
2023-03-21T19:26:44.952Z,1.03
2023-03-21T19:30:15.326Z,1.30
2023-03-21T19:33:41.428Z,1.20
2023-03-21T19:37:05.693Z,1.03
2023-03-21T19:40:30.913Z,1.10
2023-03-21T19:43:56.553Z,1.50
2023-03-21T19:47:20.828Z,1.23
2023-03-21T19:51:20.120Z,1.30
2023-03-21T19:54:30.433Z,1.10
2023-03-21T19:57:56.134Z,1.07
2023-03-21T20:01:19.988Z,1.23
2023-03-21T20:04:43.877Z,1.10
2023-03-21T20:08:10.909Z,1.00
2023-03-21T20:11:35.139Z,1.13
2023-03-21T20:15:12.396Z,1.17
2023-03-21T20:18:41.827Z,1.23
2023-03-21T20:22:07.997Z,1.10
2023-03-21T20:25:43.835Z,1.20
2023-03-21T20:29:56.335Z,1.37
2023-03-21T20:32:53.038Z,0.90
2023-03-21T20:36:38.291Z,1.13
2023-03-21T20:40:01.419Z,1.27
2023-03-21T20:47:09.811Z,1.30
2023-03-21T20:50:39.085Z,1.20
2023-03-21T20:54:03.529Z,1.70
2023-03-21T20:57:28.490Z,1.63
2023-03-21T21:00:52.869Z,1.50
2023-03-21T21:04:19.982Z,1.50
2023-03-21T21:07:46.021Z,1.70
2023-03-21T21:12:02.523Z,1.93
2023-03-21T21:14:53.946Z,2.00
2023-03-21T21:18:18.454Z,1.50
2023-03-21T21:21:42.305Z,1.40
2023-03-21T21:25:08.613Z,1.53
2023-03-21T21:28:47.831Z,1.50
2023-03-21T21:32:11.608Z,1.30
2023-03-21T21:35:35.883Z,1.30
2023-03-21T21:39:00.872Z,1.10
2023-03-21T21:42:25.827Z,1.13
2023-03-21T21:45:50.753Z,1.40
2023-03-21T21:49:14.177Z,1.23
2023-03-21T21:52:38.372Z,1.20
2023-03-21T21:56:02.431Z,1.20
2023-03-21T21:59:27.666Z,1.40
2023-03-21T22:02:51.510Z,1.50
2023-03-21T22:06:16.018Z,1.10
2023-03-21T22:09:39.831Z,1.43
2023-03-21T22:13:03.690Z,1.30
2023-03-21T22:16:28.843Z,1.27
2023-03-21T22:20:05.241Z,1.30
2023-03-21T22:23:29.735Z,1.27
2023-03-21T22:26:57.832Z,1.40
2023-03-21T22:30:21.660Z,1.40
2023-03-21T22:33:48.576Z,1.30
2023-03-21T22:37:11.952Z,1.23
2023-03-21T22:40:35.809Z,1.20
2023-03-21T22:43:59.614Z,1.00
2023-03-21T22:47:23.410Z,1.07
2023-03-21T22:50:48.971Z,1.00
2023-03-21T22:54:13.119Z,1.10
2023-03-21T22:57:36.833Z,1.10
2023-03-21T23:01:05.399Z,1.20
2023-03-21T23:04:29.298Z,1.10
2023-03-21T23:07:54.565Z,1.23
2023-03-21T23:11:18.271Z,1.10
2023-03-21T23:14:41.966Z,1.03
2023-03-21T23:18:06.116Z,1.00
2023-03-21T23:21:34.308Z,1.20
2023-03-21T23:24:59.288Z,1.10
2023-03-21T23:28:23.095Z,1.00
2023-03-21T23:31:46.857Z,1.00
2023-03-21T23:35:11.387Z,1.00
2023-03-21T23:38:35.535Z,1.00
2023-03-21T23:42:00.476Z,1.00
2023-03-21T23:45:24.268Z,1.10
2023-03-21T23:48:48.519Z,1.13
2023-03-21T23:52:12.416Z,1.00
2023-03-21T23:55:38.848Z,1.10
2023-03-21T23:59:05.040Z,0.97
